Time;durP1;ratioP1;P1;durP2;ratioP2;P2;SDS_P1;SDS_P2;PMS_P1;PMS_P2;Temp;Humidity;BMP_temperature;BMP_pressure;BME280_temperature;BME280_humidity;BME280_pressure;Samples;Min_cycle;Max_cycle;Signal;HPM_P1;HPM_P2
2021/06/28 00:00:36;;;;;;;14.40;10.68;;;17.80;99.90;;;;;;5095691;28;20032;-70
2021/06/28 00:03:02;;;;;;;13.75;10.88;;;17.80;99.90;;;;;;5095650;28;20028;-70
2021/06/28 00:05:28;;;;;;;15.52;11.65;;;17.70;99.90;;;;;;5095583;28;20458;-70
2021/06/28 00:07:54;;;;;;;17.35;12.23;;;17.70;99.90;;;;;;5094390;28;20086;-70
2021/06/28 00:10:23;;;;;;;17.42;12.55;;;17.70;99.90;;;;;;5095023;28;20024;-68
2021/06/28 00:12:51;;;;;;;13.45;10.98;;;17.70;99.90;;;;;;5095181;28;20027;-70
2021/06/28 00:15:21;;;;;;;17.65;12.45;;;17.70;99.90;;;;;;5095338;28;20074;-70
2021/06/28 00:17:47;;;;;;;16.90;13.10;;;17.70;99.90;;;;;;5095081;28;20103;-70
2021/06/28 00:20:13;;;;;;;13.27;11.40;;;17.60;99.90;;;;;;5094479;28;20023;-70
2021/06/28 00:22:39;;;;;;;14.60;11.15;;;17.70;99.90;;;;;;5095000;28;20077;-68
2021/06/28 00:25:09;;;;;;;14.00;10.18;;;17.70;99.90;;;;;;5094924;28;20031;-69
2021/06/28 00:27:37;;;;;;;13.55;9.85;;;17.70;99.90;;;;;;5094639;28;20019;-70
2021/06/28 00:30:05;;;;;;;12.88;9.75;;;17.70;99.90;;;;;;5094608;28;20028;-70
2021/06/28 00:32:31;;;;;;;14.35;9.65;;;17.80;99.90;;;;;;5094542;28;20028;-70
2021/06/28 00:34:56;;;;;;;12.35;9.80;;;17.90;99.90;;;;;;5094213;28;20047;-70
2021/06/28 00:37:22;;;;;;;17.00;9.02;;;17.90;99.90;;;;;;5094431;28;20032;-70
2021/06/28 00:39:47;;;;;;;13.73;9.52;;;17.90;99.90;;;;;;5094958;28;20461;-70
2021/06/28 00:42:13;;;;;;;16.92;10.32;;;18.00;99.90;;;;;;5094910;28;20020;-70
2021/06/28 00:44:39;;;;;;;15.85;10.13;;;18.00;99.90;;;;;;5094896;28;20024;-70
2021/06/28 00:47:04;;;;;;;13.40;9.57;;;18.00;99.90;;;;;;5093395;28;20027;-70
2021/06/28 00:49:30;;;;;;;13.98;8.98;;;17.90;99.90;;;;;;5094773;28;20428;-70
2021/06/28 00:51:57;;;;;;;12.85;9.02;;;17.90;99.90;;;;;;5094760;28;20426;-70
2021/06/28 00:54:24;;;;;;;10.27;8.77;;;18.00;99.90;;;;;;5092808;28;20028;-70
2021/06/28 00:56:50;;;;;;;12.68;9.75;;;18.00;99.90;;;;;;5094667;28;20022;-70
2021/06/28 00:59:17;;;;;;;13.38;9.43;;;18.00;99.90;;;;;;5094096;28;20098;-70
2021/06/28 01:01:42;;;;;;;11.13;8.93;;;18.00;99.90;;;;;;5094592;28;20016;-70
2021/06/28 01:04:08;;;;;;;11.60;8.77;;;18.00;99.90;;;;;;5094285;28;20023;-70
2021/06/28 01:06:34;;;;;;;12.85;9.75;;;17.90;99.90;;;;;;5094527;28;20032;-70
2021/06/28 01:08:59;;;;;;;13.52;8.93;;;17.90;99.90;;;;;;5094485;28;20028;-70
2021/06/28 01:11:25;;;;;;;18.20;9.60;;;17.90;99.90;;;;;;5093900;28;20384;-70
2021/06/28 01:13:51;;;;;;;14.18;9.23;;;17.90;99.90;;;;;;5094137;28;20094;-70
2021/06/28 01:16:17;;;;;;;11.55;9.32;;;17.90;99.90;;;;;;5094051;28;20431;-70
2021/06/28 01:18:43;;;;;;;12.85;9.30;;;18.00;99.90;;;;;;5094349;28;20050;-70
2021/06/28 01:21:11;;;;;;;15.00;9.00;;;18.10;99.90;;;;;;5094040;28;20403;-70
2021/06/28 01:23:37;;;;;;;11.43;9.48;;;18.10;99.90;;;;;;5092551;28;20419;-70
2021/06/28 01:26:06;;;;;;;12.30;9.13;;;18.30;99.90;;;;;;5092434;28;20035;-70
2021/06/28 01:28:32;;;;;;;17.25;11.38;;;18.20;99.90;;;;;;5093676;28;20024;-70
2021/06/28 01:30:59;;;;;;;17.30;10.13;;;18.20;99.90;;;;;;5093979;28;20045;-69
2021/06/28 01:33:25;;;;;;;16.10;12.38;;;18.00;99.90;;;;;;5093912;28;20028;-70
2021/06/28 01:35:51;;;;;;;19.20;12.70;;;18.00;99.90;;;;;;5093465;28;20598;-70
2021/06/28 01:38:17;;;;;;;20.85;13.23;;;17.80;99.90;;;;;;5094132;28;20028;-70
2021/06/28 01:40:43;;;;;;;18.63;12.60;;;17.80;99.90;;;;;;5094109;28;20457;-70
2021/06/28 01:43:09;;;;;;;19.25;13.77;;;17.70;99.90;;;;;;5094057;28;20020;-70
2021/06/28 01:45:35;;;;;;;20.60;13.85;;;17.60;99.90;;;;;;5092602;28;20028;-70
2021/06/28 01:48:02;;;;;;;19.35;13.65;;;17.60;99.90;;;;;;5094030;28;20052;-70
2021/06/28 01:50:31;;;;;;;23.15;14.32;;;17.70;99.90;;;;;;5093971;28;20024;-70
2021/06/28 01:52:57;;;;;;;22.70;15.18;;;17.60;99.90;;;;;;5093690;28;20496;-70
2021/06/28 01:55:24;;;;;;;23.05;14.07;;;17.60;99.90;;;;;;5093924;28;20034;-70
2021/06/28 01:57:54;;;;;;;20.55;14.32;;;17.60;99.90;;;;;;5093618;28;20016;-70
2021/06/28 02:00:23;;;;;;;25.58;16.08;;;17.60;99.90;;;;;;5092076;28;20461;-70
2021/06/28 02:03:06;;;;;;;25.05;14.93;;;17.50;99.90;;;;;;5092756;28;20081;-70
2021/06/28 02:05:36;;;;;;;21.55;15.63;;;17.50;99.90;;;;;;5092743;28;20024;-70
2021/06/28 02:08:05;;;;;;;23.00;14.88;;;17.50;99.90;;;;;;5093574;28;20070;-70
2021/06/28 02:10:30;;;;;;;25.02;15.27;;;17.50;99.90;;;;;;5093830;28;20020;-70
2021/06/28 02:12:56;;;;;;;27.77;17.63;;;17.50;99.90;;;;;;5093804;28;20034;-70
2021/06/28 02:15:24;;;;;;;30.10;17.35;;;17.50;99.90;;;;;;5093444;28;20369;-70
2021/06/28 02:17:50;;;;;;;22.50;16.77;;;17.50;99.90;;;;;;5093488;28;20016;-70
2021/06/28 02:20:18;;;;;;;25.38;16.92;;;17.50;99.90;;;;;;5093165;28;20166;-70
2021/06/28 02:22:45;;;;;;;25.90;15.63;;;17.40;99.90;;;;;;5093724;28;20400;-70
2021/06/28 02:25:11;;;;;;;33.08;16.83;;;17.40;99.90;;;;;;5093635;28;20365;-70
2021/06/28 02:27:39;;;;;;;30.42;16.70;;;17.40;99.90;;;;;;5093628;28;20099;-70
2021/06/28 02:30:08;;;;;;;27.92;16.25;;;17.40;99.90;;;;;;5092466;28;20028;-70
2021/06/28 02:32:33;;;;;;;28.33;17.50;;;17.40;99.90;;;;;;5093580;28;20016;-70
2021/06/28 02:34:59;;;;;;;28.13;17.23;;;17.40;99.90;;;;;;5093034;28;20569;-70
2021/06/28 02:37:24;;;;;;;28.40;16.38;;;17.40;99.90;;;;;;5093532;28;20027;-70
2021/06/28 02:39:50;;;;;;;23.88;15.60;;;17.40;99.90;;;;;;5093262;28;20024;-70
2021/06/28 02:42:16;;;;;;;26.83;15.70;;;17.50;99.90;;;;;;5075689;28;20057;-70
2021/06/28 02:44:41;;;;;;;24.85;15.77;;;17.50;99.90;;;;;;5097176;28;20055;-70
2021/06/28 02:47:08;;;;;;;23.55;15.50;;;17.50;99.90;;;;;;5095702;28;20461;-70
2021/06/28 02:49:33;;;;;;;23.65;15.75;;;17.40;99.90;;;;;;5097085;28;20430;-70
2021/06/28 02:51:58;;;;;;;24.65;15.55;;;17.30;99.90;;;;;;5097022;28;20051;-70
2021/06/28 02:54:24;;;;;;;21.17;15.82;;;17.20;99.90;;;;;;5096370;28;20103;-70
2021/06/28 02:56:50;;;;;;;35.38;16.38;;;17.20;99.90;;;;;;5096922;28;20024;-70
2021/06/28 02:59:15;;;;;;;23.63;15.60;;;17.20;99.90;;;;;;5096615;28;20048;-70
2021/06/28 03:01:41;;;;;;;25.42;17.00;;;17.20;99.90;;;;;;5096920;28;20032;-70
2021/06/28 03:04:07;;;;;;;27.42;16.30;;;17.10;99.90;;;;;;5096845;28;20520;-70
2021/06/28 03:06:32;;;;;;;29.77;17.10;;;17.10;99.90;;;;;;5096743;28;20507;-70
2021/06/28 03:08:58;;;;;;;28.08;16.80;;;17.00;99.90;;;;;;5096715;28;20028;-70
2021/06/28 03:11:23;;;;;;;24.40;16.25;;;17.10;99.90;;;;;;5096087;28;20043;-70
2021/06/28 03:13:50;;;;;;;23.98;16.23;;;17.00;99.90;;;;;;5096069;28;20039;-70
2021/06/28 03:16:16;;;;;;;23.23;16.25;;;17.00;99.90;;;;;;5096607;28;20400;-70
2021/06/28 03:18:42;;;;;;;25.08;16.80;;;17.00;99.90;;;;;;5096533;28;20461;-70
2021/06/28 03:21:11;;;;;;;22.65;16.40;;;17.00;99.90;;;;;;5096525;28;20032;-69
2021/06/28 03:23:38;;;;;;;21.77;16.75;;;17.00;99.90;;;;;;5094631;28;20024;-70
2021/06/28 03:26:04;;;;;;;23.17;16.50;;;17.00;99.90;;;;;;5096376;28;20048;-70
2021/06/28 03:28:30;;;;;;;22.58;16.45;;;16.90;99.90;;;;;;5096331;28;20063;-70
2021/06/28 03:30:55;;;;;;;22.48;16.17;;;16.90;99.90;;;;;;5095281;28;20346;-69
2021/06/28 03:33:21;;;;;;;27.38;16.70;;;17.00;99.90;;;;;;5096228;28;20029;-70
2021/06/28 03:35:46;;;;;;;23.02;17.38;;;16.90;99.90;;;;;;5096132;28;20071;-70
2021/06/28 03:38:12;;;;;;;23.90;16.38;;;16.90;99.90;;;;;;5096143;28;20083;-70
2021/06/28 03:40:38;;;;;;;24.40;16.52;;;16.90;99.90;;;;;;5096112;28;20020;-70
2021/06/28 03:43:07;;;;;;;29.60;16.05;;;17.00;99.90;;;;;;5094631;28;20031;-70
2021/06/28 03:45:33;;;;;;;25.05;16.00;;;17.00;99.90;;;;;;5095506;28;20031;-71
2021/06/28 03:47:59;;;;;;;22.30;16.02;;;17.00;99.90;;;;;;5078215;28;20031;-70
2021/06/28 03:50:25;;;;;;;24.77;17.15;;;17.00;99.90;;;;;;5095609;28;20028;-70
2021/06/28 03:52:51;;;;;;;28.30;17.67;;;17.00;99.90;;;;;;5093931;28;20158;-70
2021/06/28 03:55:17;;;;;;;24.67;17.00;;;16.90;99.90;;;;;;5095425;28;20377;-70
2021/06/28 03:57:43;;;;;;;25.60;16.25;;;16.90;99.90;;;;;;5094328;28;20020;-70
2021/06/28 04:00:15;;;;;;;25.85;16.50;;;17.00;99.90;;;;;;5094002;28;20028;-70
2021/06/28 04:02:42;;;;;;;24.73;16.95;;;17.00;99.90;;;;;;5095672;28;20019;-70
2021/06/28 04:05:12;;;;;;;22.67;16.67;;;17.10;99.90;;;;;;5095632;28;20108;-70
2021/06/28 04:07:37;;;;;;;28.50;19.33;;;17.10;99.90;;;;;;5095542;28;20027;-70
2021/06/28 04:10:05;;;;;;;22.67;15.82;;;17.20;99.90;;;;;;5095536;28;20469;-71
2021/06/28 04:12:31;;;;;;;25.73;18.73;;;17.20;99.90;;;;;;5095510;28;20034;-70
2021/06/28 04:14:57;;;;;;;22.50;15.77;;;17.20;99.90;;;;;;5095088;28;20103;-70
2021/06/28 04:17:22;;;;;;;22.70;15.65;;;17.30;99.90;;;;;;5095389;28;20016;-70
2021/06/28 04:19:48;;;;;;;22.02;15.32;;;17.30;99.90;;;;;;5095300;28;20031;-71
2021/06/28 04:22:14;;;;;;;18.60;14.85;;;17.50;99.90;;;;;;5095287;28;20058;-71
2021/06/28 04:24:39;;;;;;;23.80;16.05;;;17.80;99.90;;;;;;5095219;28;20024;-71
2021/06/28 04:27:05;;;;;;;20.85;14.68;;;18.00;99.90;;;;;;5095211;28;20518;-71
2021/06/28 04:29:31;;;;;;;21.85;15.52;;;18.10;99.90;;;;;;5093996;28;20509;-70
2021/06/28 04:31:56;;;;;;;22.42;14.05;;;18.30;99.90;;;;;;5094591;28;20038;-71
2021/06/28 04:34:22;;;;;;;18.77;12.73;;;18.50;99.90;;;;;;5094460;28;20151;-71
2021/06/28 04:36:47;;;;;;;15.45;11.52;;;19.00;99.90;;;;;;5095039;28;20024;-70
2021/06/28 04:39:13;;;;;;;13.30;10.13;;;19.40;99.90;;;;;;5094739;28;20466;-71
2021/06/28 04:41:38;;;;;;;16.92;10.48;;;20.00;99.90;;;;;;5094917;28;20030;-71
2021/06/28 04:44:04;;;;;;;13.48;10.00;;;20.40;99.90;;;;;;5093457;28;20085;-70
2021/06/28 04:46:30;;;;;;;15.80;9.25;;;21.20;99.90;;;;;;5094529;28;20028;-70
2021/06/28 04:48:55;;;;;;;12.25;8.55;;;21.80;99.90;;;;;;5094765;28;20054;-70
2021/06/28 04:51:21;;;;;;;12.23;8.80;;;22.30;99.90;;;;;;5094733;28;20032;-71
2021/06/28 04:53:46;;;;;;;12.48;8.38;;;22.90;99.90;;;;;;5094173;28;20039;-70
2021/06/28 04:56:12;;;;;;;9.10;7.85;;;23.60;99.90;;;;;;5094595;28;20040;-69
2021/06/28 04:58:37;;;;;;;12.35;7.78;;;23.90;99.90;;;;;;5092848;28;20107;-70
2021/06/28 05:01:03;;;;;;;12.27;7.82;;;24.20;99.90;;;;;;5093191;28;20020;-70
2021/06/28 05:03:28;;;;;;;10.10;8.50;;;24.50;99.90;;;;;;5093456;28;20093;-69
2021/06/28 05:05:54;;;;;;;9.52;7.88;;;24.80;99.90;;;;;;5094109;28;20031;-70
2021/06/28 05:08:19;;;;;;;12.75;8.88;;;25.00;99.90;;;;;;5094447;28;20024;-69
2021/06/28 05:10:45;;;;;;;10.23;7.90;;;25.30;99.90;;;;;;5094464;28;20501;-70
2021/06/28 05:13:11;;;;;;;13.13;8.45;;;25.90;99.90;;;;;;5094433;28;20099;-70
2021/06/28 05:15:36;;;;;;;15.45;7.80;;;26.50;99.90;;;;;;5092459;28;20070;-70
2021/06/28 05:18:02;;;;;;;9.98;7.82;;;26.30;99.90;;;;;;5094080;28;20109;-68
2021/06/28 05:20:28;;;;;;;10.50;7.75;;;26.70;99.90;;;;;;5094282;28;20028;-68
2021/06/28 05:22:54;;;;;;;13.23;7.45;;;26.70;99.90;;;;;;5094299;28;20020;-68
2021/06/28 05:25:19;;;;;;;13.13;8.00;;;27.60;99.90;;;;;;5094241;28;20119;-68
2021/06/28 05:27:45;;;;;;;9.77;8.40;;;27.50;99.90;;;;;;5075637;28;20028;-69
2021/06/28 05:30:13;;;;;;;12.27;8.80;;;27.40;99.90;;;;;;5093616;28;20024;-68
2021/06/28 05:32:38;;;;;;;9.77;8.13;;;27.20;99.90;;;;;;5093875;28;20035;-68
2021/06/28 05:35:06;;;;;;;9.98;8.00;;;27.40;99.90;;;;;;5093612;28;20047;-68
2021/06/28 05:37:32;;;;;;;10.85;7.88;;;27.10;99.90;;;;;;5093059;28;20488;-69
2021/06/28 05:39:57;;;;;;;8.95;7.55;;;27.70;99.90;;;;;;5093997;28;20024;-68
2021/06/28 05:42:23;;;;;;;12.65;8.18;;;27.60;99.90;;;;;;5094015;28;20020;-68
2021/06/28 05:44:49;;;;;;;9.85;8.75;;;27.90;99.90;;;;;;5093443;28;20032;-68
2021/06/28 05:47:16;;;;;;;11.80;8.27;;;27.10;99.90;;;;;;5093918;28;20021;-68
2021/06/28 05:49:43;;;;;;;11.55;7.95;;;27.10;99.90;;;;;;5093681;28;20019;-68
2021/06/28 05:52:09;;;;;;;10.73;8.48;;;28.00;99.90;;;;;;5093920;28;20021;-68
2021/06/28 05:54:35;;;;;;;9.25;8.27;;;28.00;99.90;;;;;;5093245;28;20021;-68
2021/06/28 05:57:01;;;;;;;9.10;8.20;;;28.60;99.90;;;;;;5092840;28;20076;-68
2021/06/28 05:59:26;;;;;;;11.23;8.90;;;29.40;99.90;;;;;;5093420;28;20111;-69
2021/06/28 06:01:52;;;;;;;9.70;7.70;;;29.30;99.90;;;;;;5093078;28;20032;-68
2021/06/28 06:04:18;;;;;;;13.57;9.38;;;28.80;99.90;;;;;;5087261;28;20021;-68
2021/06/28 06:06:44;;;;;;;10.32;8.30;;;28.20;99.90;;;;;;5085476;28;20478;-68
2021/06/28 06:09:11;;;;;;;10.13;8.07;;;28.30;99.90;;;;;;5083208;28;20024;-68
2021/06/28 06:11:37;;;;;;;11.40;8.50;;;28.00;99.90;;;;;;5091938;28;20032;-68
2021/06/28 06:14:03;;;;;;;10.25;8.52;;;28.90;99.90;;;;;;5091979;28;20036;-69
2021/06/28 06:16:29;;;;;;;13.57;8.48;;;28.40;99.90;;;;;;5090306;28;20020;-70
2021/06/28 06:18:54;;;;;;;9.93;8.93;;;27.70;99.90;;;;;;5095797;28;20039;-69
2021/06/28 06:21:21;;;;;;;11.00;8.63;;;27.60;99.90;;;;;;5095847;28;20069;-70
2021/06/28 06:23:47;;;;;;;9.90;8.77;;;27.20;99.90;;;;;;5096218;28;20028;-70
2021/06/28 06:26:13;;;;;;;11.30;8.50;;;27.40;99.90;;;;;;5096859;28;20363;-70
2021/06/28 06:28:38;;;;;;;9.70;8.70;;;26.80;99.90;;;;;;5095485;28;20073;-70
2021/06/28 06:31:04;;;;;;;9.55;8.65;;;26.60;99.90;;;;;;5097193;28;20462;-70
2021/06/28 06:33:29;;;;;;;12.18;9.15;;;26.30;99.90;;;;;;5078025;28;20067;-70
2021/06/28 06:35:55;;;;;;;10.10;9.10;;;26.20;99.90;;;;;;5095345;28;20048;-69
2021/06/28 06:38:21;;;;;;;12.27;9.13;;;26.10;99.90;;;;;;5096127;28;20016;-70
2021/06/28 06:40:48;;;;;;;11.30;9.20;;;26.50;99.90;;;;;;5094557;28;20150;-70
2021/06/28 06:43:14;;;;;;;9.55;8.55;;;27.10;99.90;;;;;;5095230;28;20024;-70
2021/06/28 06:45:40;;;;;;;10.73;9.30;;;27.50;99.90;;;;;;5092241;28;20088;-66
2021/06/28 06:48:06;;;;;;;10.57;9.35;;;27.30;99.90;;;;;;5092877;28;20074;-67
2021/06/28 06:50:32;;;;;;;12.93;9.70;;;27.10;99.90;;;;;;5094511;28;20024;-67
2021/06/28 06:52:58;;;;;;;13.00;9.35;;;26.40;99.90;;;;;;5095170;28;20020;-67
2021/06/28 06:55:25;;;;;;;11.85;10.07;;;26.50;99.90;;;;;;5094605;28;20028;-66
2021/06/28 06:57:51;;;;;;;11.32;10.23;;;26.00;99.90;;;;;;5095342;28;20121;-66
2021/06/28 07:00:20;;;;;;;11.77;9.98;;;27.10;99.90;;;;;;5093872;28;20484;-67
2021/06/28 07:02:47;;;;;;;11.32;10.23;;;28.30;99.90;;;;;;5092095;28;20016;-66
2021/06/28 07:05:15;;;;;;;10.20;9.30;;;28.80;99.90;;;;;;5118257;27;20025;-64
2021/06/28 07:07:41;;;;;;;14.77;10.38;;;28.10;99.90;;;;;;5094974;28;20030;-66
2021/06/28 07:10:10;;;;;;;9.95;8.95;;;29.20;99.90;;;;;;5074449;28;20028;-66
2021/06/28 07:12:35;;;;;;;11.80;10.02;;;28.70;99.90;;;;;;5090169;28;20026;-65
2021/06/28 07:15:01;;;;;;;10.70;9.25;;;28.40;99.90;;;;;;5095344;28;20381;-65
2021/06/28 07:17:27;;;;;;;11.25;9.52;;;28.90;99.90;;;;;;5095606;28;20430;-65
2021/06/28 07:19:52;;;;;;;11.57;10.25;;;29.10;99.90;;;;;;5097175;28;20504;-66
2021/06/28 07:22:19;;;;;;;11.25;10.05;;;28.50;99.90;;;;;;5094845;28;20069;-66
2021/06/28 07:24:45;;;;;;;12.93;9.38;;;28.70;99.90;;;;;;5059205;28;20036;-66
2021/06/28 07:27:11;;;;;;;11.05;9.70;;;29.20;99.90;;;;;;5093903;28;20024;-69
2021/06/28 07:29:36;;;;;;;9.68;8.77;;;30.20;99.90;;;;;;5093981;28;20103;-71
2021/06/28 07:32:02;;;;;;;9.35;8.55;;;29.80;99.90;;;;;;5094495;28;20111;-69
2021/06/28 07:34:28;;;;;;;10.27;9.25;;;30.30;99.90;;;;;;5094092;28;20417;-69
2021/06/28 07:36:53;;;;;;;9.93;8.98;;;30.50;99.90;;;;;;5094547;28;20024;-69
2021/06/28 07:39:19;;;;;;;10.45;9.45;;;30.10;99.90;;;;;;5093935;28;20012;-69
2021/06/28 07:41:44;;;;;;;10.18;8.77;;;29.90;99.90;;;;;;5094691;28;20031;-69
2021/06/28 07:44:10;;;;;;;9.75;8.85;;;30.10;99.90;;;;;;5094464;28;20500;-69
2021/06/28 07:46:36;;;;;;;10.63;9.45;;;30.10;99.90;;;;;;5094558;28;20031;-68
2021/06/28 07:49:03;;;;;;;12.60;9.07;;;29.40;99.90;;;;;;5066633;28;20111;-69
2021/06/28 07:51:33;;;;;;;10.40;9.27;;;28.60;99.90;;;;;;5077697;28;20465;-69
2021/06/28 07:53:59;;;;;;;11.35;10.25;;;28.20;99.90;;;;;;5094758;28;20055;-68
2021/06/28 07:56:24;;;;;;;11.20;10.20;;;27.90;99.90;;;;;;5094858;28;20021;-70
2021/06/28 07:58:50;;;;;;;13.88;10.32;;;27.60;99.90;;;;;;5094602;28;20095;-69
2021/06/28 08:01:17;;;;;;;10.40;9.45;;;27.60;99.90;;;;;;5093247;28;20163;-70
2021/06/28 08:03:45;;;;;;;10.95;9.85;;;28.10;99.90;;;;;;5094383;28;20047;-69
2021/06/28 08:06:12;;;;;;;11.32;10.23;;;28.30;99.90;;;;;;5094085;28;20428;-70
2021/06/28 08:08:38;;;;;;;11.15;10.15;;;28.90;99.90;;;;;;5110572;28;20032;-69
2021/06/28 08:11:06;;;;;;;13.30;10.45;;;28.90;99.90;;;;;;5092686;28;20089;-70
2021/06/28 08:13:33;;;;;;;15.65;11.27;;;28.60;99.90;;;;;;5092650;28;20149;-69
2021/06/28 08:15:58;;;;;;;13.52;10.85;;;28.80;99.90;;;;;;5094449;28;20024;-70
2021/06/28 08:18:24;;;;;;;11.23;10.07;;;28.80;99.90;;;;;;5093370;28;20093;-69
2021/06/28 08:20:49;;;;;;;13.63;9.82;;;28.50;99.90;;;;;;5094507;28;20016;-69
2021/06/28 08:23:16;;;;;;;11.63;10.43;;;28.10;99.90;;;;;;5093161;28;20035;-69
2021/06/28 08:25:41;;;;;;;12.18;10.98;;;28.60;99.90;;;;;;5094267;28;20020;-70
2021/06/28 08:28:08;;;;;;;11.40;10.40;;;28.90;99.90;;;;;;5094274;28;20069;-68
2021/06/28 08:30:33;;;;;;;12.18;10.52;;;28.70;99.90;;;;;;5093154;28;20016;-68
2021/06/28 08:32:59;;;;;;;14.50;10.50;;;28.70;99.90;;;;;;5093327;28;20046;-68
2021/06/28 08:35:25;;;;;;;11.43;10.43;;;28.80;99.90;;;;;;5091676;28;20098;-68
2021/06/28 08:37:50;;;;;;;11.55;10.35;;;28.90;99.90;;;;;;5091109;28;20024;-69
2021/06/28 08:40:16;;;;;;;11.02;9.90;;;28.90;99.90;;;;;;5093187;28;20487;-67
2021/06/28 08:42:44;;;;;;;11.30;10.20;;;28.80;99.90;;;;;;5093723;28;20468;-67
2021/06/28 08:45:11;;;;;;;10.93;9.88;;;27.80;99.90;;;;;;5093393;28;20449;-67
2021/06/28 08:47:36;;;;;;;11.57;10.35;;;27.60;99.90;;;;;;5092451;28;20107;-66
2021/06/28 08:50:04;;;;;;;10.77;9.88;;;27.40;99.90;;;;;;5093699;28;20119;-68
2021/06/28 08:52:35;;;;;;;11.63;10.52;;;27.50;99.90;;;;;;5092747;28;20060;-66
2021/06/28 08:55:01;;;;;;;11.05;10.05;;;27.30;99.90;;;;;;5092925;28;20110;-65
2021/06/28 08:57:26;;;;;;;12.13;10.18;;;26.90;99.90;;;;;;5093337;28;20090;-65
2021/06/28 08:59:52;;;;;;;12.35;11.05;;;26.40;99.90;;;;;;5092969;28;20024;-65
2021/06/28 09:02:18;;;;;;;12.70;11.50;;;26.60;99.90;;;;;;5093088;28;20103;-65
2021/06/28 09:05:01;;;;;;;11.80;10.65;;;26.50;99.90;;;;;;5092389;28;20122;-65
2021/06/28 09:07:27;;;;;;;11.50;10.40;;;26.50;99.90;;;;;;5091680;28;20644;-65
2021/06/28 09:09:52;;;;;;;13.23;11.40;;;26.80;99.90;;;;;;5092070;28;20032;-65
2021/06/28 09:12:19;;;;;;;12.20;11.00;;;27.50;99.90;;;;;;5093217;28;20069;-65
2021/06/28 09:14:49;;;;;;;11.13;10.13;;;27.90;99.90;;;;;;5092069;28;20081;-66
2021/06/28 09:17:36;;;;;;;14.45;10.68;;;28.30;99.90;;;;;;5092733;28;20031;-65
2021/06/28 09:20:21;;;;;;;11.68;10.50;;;28.10;99.90;;;;;;5093120;28;20036;-65
2021/06/28 09:22:49;;;;;;;12.18;10.90;;;27.70;99.90;;;;;;5093168;28;20020;-65
2021/06/28 09:25:34;;;;;;;12.63;10.65;;;27.70;99.90;;;;;;5091658;28;20077;-65
2021/06/28 09:28:02;;;;;;;13.55;10.52;;;27.40;99.90;;;;;;5092691;28;20028;-65
2021/06/28 09:30:28;;;;;;;11.27;10.18;;;27.20;99.90;;;;;;5093606;28;20104;-64
2021/06/28 09:33:02;;;;;;;11.50;10.38;;;27.40;99.90;;;;;;5092440;28;20437;-65
2021/06/28 09:35:37;;;;;;;11.52;10.48;;;27.60;99.90;;;;;;5092028;28;20461;-64
2021/06/28 09:38:05;;;;;;;12.50;11.25;;;27.60;99.90;;;;;;5088968;28;20056;-65
2021/06/28 09:40:30;;;;;;;12.25;10.95;;;28.00;99.90;;;;;;5092814;28;20024;-65
2021/06/28 09:42:56;;;;;;;12.75;11.50;;;28.20;99.90;;;;;;5093272;28;20051;-65
2021/06/28 09:45:24;;;;;;;12.90;11.60;;;28.50;99.90;;;;;;5092310;28;20105;-65
2021/06/28 09:47:49;;;;;;;11.70;10.60;;;28.50;99.90;;;;;;5092609;28;20137;-66
2021/06/28 09:50:19;;;;;;;12.63;10.98;;;28.60;99.90;;;;;;5093282;28;20051;-65
2021/06/28 09:52:54;;;;;;;13.45;10.93;;;28.50;99.90;;;;;;5096024;28;20462;-65
2021/06/28 09:55:29;;;;;;;13.15;11.40;;;28.50;99.90;;;;;;5095832;28;20030;-65
2021/06/28 09:58:17;;;;;;;11.20;9.98;;;28.50;99.90;;;;;;5096355;28;20024;-65
2021/06/28 10:00:45;;;;;;;12.13;10.70;;;28.20;99.90;;;;;;5081492;28;20020;-64
2021/06/28 10:03:38;;;;;;;12.77;11.52;;;28.10;99.90;;;;;;5095406;28;20066;-64
2021/06/28 10:09:06;;;;;;;11.75;10.63;;;28.00;99.90;;;;;;5092494;27;20399;-64
2021/06/28 10:11:32;;;;;;;11.70;10.50;;;27.50;99.90;;;;;;5079245;28;20462;-64
2021/06/28 10:14:02;;;;;;;14.15;9.75;;;27.20;99.90;;;;;;5069877;28;20036;-64
2021/06/28 10:16:33;;;;;;;12.02;10.77;;;27.10;99.90;;;;;;5064865;28;20025;-64
2021/06/28 10:19:01;;;;;;;11.75;9.73;;;27.10;99.90;;;;;;5069427;28;20028;-63
2021/06/28 10:21:28;;;;;;;12.75;9.32;;;27.40;99.90;;;;;;5070287;28;20363;-64
2021/06/28 10:23:54;;;;;;;10.40;9.43;;;27.10;99.90;;;;;;5060132;28;20028;-65
2021/06/28 10:26:20;;;;;;;10.40;9.32;;;27.80;99.90;;;;;;5051686;28;20028;-64
2021/06/28 10:28:46;;;;;;;10.70;9.45;;;27.90;99.90;;;;;;5075285;28;20111;-64
2021/06/28 10:31:12;;;;;;;10.57;9.57;;;28.20;99.90;;;;;;5084965;28;20107;-64
2021/06/28 10:33:39;;;;;;;11.13;9.48;;;28.20;99.90;;;;;;5078600;28;20051;-64
2021/06/28 10:36:09;;;;;;;11.25;9.50;;;28.50;99.90;;;;;;5073771;28;20461;-64
2021/06/28 10:38:45;;;;;;;9.98;9.07;;;28.90;99.90;;;;;;5066737;28;20032;-64
2021/06/28 10:41:11;;;;;;;10.30;9.30;;;29.00;99.90;;;;;;5084883;28;20525;-65
2021/06/28 10:43:39;;;;;;;10.48;9.38;;;28.30;99.90;;;;;;5075532;28;20112;-64
2021/06/28 10:46:07;;;;;;;9.98;8.93;;;28.70;99.90;;;;;;5078775;28;20032;-64
2021/06/28 10:48:49;;;;;;;11.02;9.05;;;29.10;99.90;;;;;;5054513;28;20473;-65
2021/06/28 10:51:19;;;;;;;9.68;8.70;;;30.00;99.90;;;;;;5071780;28;20042;-65
2021/06/28 10:56:49;;;;;;;10.40;9.40;;;29.90;99.90;;;;;;5135319;27;20305;-63
2021/06/28 11:02:02;;;;;;;9.45;8.65;;;29.80;99.90;;;;;;5093446;27;20574;-65
2021/06/28 11:04:37;;;;;;;9.13;8.32;;;29.00;99.90;;;;;;5087936;28;20017;-64
2021/06/28 11:07:06;;;;;;;10.10;9.10;;;28.80;99.90;;;;;;5087715;28;20818;-64
2021/06/28 11:09:53;;;;;;;8.68;7.97;;;29.40;99.90;;;;;;5089445;28;20105;-64
2021/06/28 11:12:23;;;;;;;9.75;8.55;;;30.10;99.90;;;;;;5063088;28;20118;-64
2021/06/28 11:14:57;;;;;;;8.25;7.45;;;29.50;99.90;;;;;;5090502;28;20096;-64
2021/06/28 11:17:41;;;;;;;9.85;8.90;;;29.40;99.90;;;;;;5105662;28;20020;-64
2021/06/28 11:20:18;;;;;;;10.30;9.32;;;29.30;99.90;;;;;;5108876;28;20034;-64
2021/06/28 11:22:50;;;;;;;9.18;8.27;;;29.10;99.90;;;;;;5089296;28;20082;-65
2021/06/28 11:25:18;;;;;;;10.80;8.70;;;28.90;99.90;;;;;;5094088;28;20489;-64
2021/06/28 11:30:59;;;;;;;9.50;7.93;;;28.30;99.90;;;;;;5102172;27;20833;-63
2021/06/28 11:33:35;;;;;;;10.77;7.50;;;27.60;99.90;;;;;;5089998;28;20089;-64
2021/06/28 11:36:01;;;;;;;9.43;8.00;;;27.50;99.90;;;;;;5090252;28;20042;-64
2021/06/28 11:38:37;;;;;;;11.20;7.85;;;27.30;99.90;;;;;;5090177;28;21485;-65
2021/06/28 11:41:15;;;;;;;9.05;7.60;;;27.30;99.90;;;;;;5090449;28;20020;-67
2021/06/28 11:43:45;;;;;;;9.02;7.78;;;27.20;99.90;;;;;;5089388;28;20012;-66
2021/06/28 11:46:14;;;;;;;9.57;8.15;;;27.10;99.90;;;;;;5089836;28;20078;-67
2021/06/28 11:48:47;;;;;;;8.98;8.18;;;26.90;99.90;;;;;;5089792;28;20020;-66
2021/06/28 11:51:22;;;;;;;8.82;8.02;;;26.70;99.90;;;;;;5090079;28;20063;-68
2021/06/28 11:53:55;;;;;;;9.85;7.85;;;26.60;99.90;;;;;;5089290;28;20039;-65
2021/06/28 11:56:23;;;;;;;9.52;8.63;;;26.70;99.90;;;;;;5069903;28;20017;-66
2021/06/28 11:59:03;;;;;;;9.15;8.32;;;26.60;99.90;;;;;;5073239;28;20431;-66
2021/06/28 12:01:33;;;;;;;9.00;8.07;;;26.50;99.90;;;;;;5088649;28;20082;-68
2021/06/28 12:04:00;;;;;;;9.02;8.13;;;26.40;99.90;;;;;;5084744;28;20028;-68
2021/06/28 12:06:29;;;;;;;8.88;7.97;;;26.50;99.90;;;;;;5089635;28;20051;-67
2021/06/28 12:09:20;;;;;;;8.18;7.45;;;26.80;99.90;;;;;;5106505;28;20039;-67
2021/06/28 12:11:53;;;;;;;9.13;7.78;;;27.30;99.90;;;;;;5069879;28;20493;-69
2021/06/28 12:14:40;;;;;;;9.00;8.07;;;27.50;99.90;;;;;;5089825;28;20024;-68
2021/06/28 12:17:14;;;;;;;8.95;8.05;;;27.60;99.90;;;;;;5084780;28;20040;-69
2021/06/28 12:19:42;;;;;;;9.15;8.25;;;27.10;99.90;;;;;;5088229;28;20408;-68
2021/06/28 12:22:10;;;;;;;9.02;8.13;;;27.00;99.90;;;;;;5089354;28;20107;-67
2021/06/28 12:24:36;;;;;;;9.70;8.80;;;27.20;99.90;;;;;;5088758;28;20541;-68
2021/06/28 12:27:05;;;;;;;9.77;8.93;;;27.00;99.90;;;;;;5089270;28;20067;-69
2021/06/28 12:29:48;;;;;;;9.73;8.68;;;26.70;99.90;;;;;;5088626;28;20048;-69
2021/06/28 12:32:21;;;;;;;10.02;8.82;;;26.70;99.90;;;;;;5089791;28;20031;-69
2021/06/28 12:34:50;;;;;;;8.00;7.30;;;26.60;99.90;;;;;;5089156;28;20363;-69
2021/06/28 12:37:28;;;;;;;10.68;8.85;;;26.80;99.90;;;;;;5089392;28;20055;-67
2021/06/28 12:40:09;;;;;;;9.55;8.02;;;26.70;99.90;;;;;;5087594;28;20082;-68
2021/06/28 12:42:39;;;;;;;10.23;8.15;;;26.70;99.90;;;;;;5075996;28;20025;-68
2021/06/28 12:45:05;;;;;;;9.05;8.07;;;26.60;99.90;;;;;;5075190;28;20024;-67
2021/06/28 12:47:31;;;;;;;8.73;7.93;;;26.60;99.90;;;;;;5074739;28;20039;-67